createdAt,value
2023-04-09T02:13:51.797Z,7.70
2023-04-09T02:16:19.427Z,5.50
2023-04-09T02:18:46.170Z,5.10
2023-04-09T02:21:13.846Z,5.50
2023-04-09T02:23:40.736Z,5.50
2023-04-09T02:26:07.184Z,6.10
2023-04-09T02:28:33.685Z,6.10
2023-04-09T02:31:00.210Z,6.00
2023-04-09T02:33:26.633Z,6.00
2023-04-09T02:35:53.089Z,5.80
2023-04-09T02:38:19.500Z,6.00
2023-04-09T02:40:45.973Z,5.70
2023-04-09T02:43:12.360Z,5.90
2023-04-09T02:45:38.971Z,6.20
2023-04-09T02:48:05.624Z,6.50
2023-04-09T02:50:32.037Z,7.00
2023-04-09T02:52:58.510Z,6.50
2023-04-09T02:55:25.035Z,9.70
2023-04-09T02:57:51.436Z,9.90
2023-04-09T03:00:17.909Z,8.50
2023-04-09T03:02:44.401Z,7.80
2023-04-09T03:05:10.929Z,6.90
2023-04-09T03:07:37.324Z,7.40
2023-04-09T03:10:04.108Z,6.00
2023-04-09T03:12:30.562Z,13.00
2023-04-09T03:14:56.995Z,7.70
2023-04-09T03:17:27.049Z,7.20
2023-04-09T03:19:53.780Z,6.60
2023-04-09T03:22:20.378Z,7.70
2023-04-09T03:24:46.745Z,10.00
2023-04-09T03:27:13.170Z,9.90
2023-04-09T03:29:39.613Z,9.30
2023-04-09T03:32:06.092Z,8.80
2023-04-09T03:34:32.495Z,8.80
2023-04-09T03:36:58.960Z,12.40
2023-04-09T03:39:25.408Z,24.80
2023-04-09T03:41:51.868Z,14.50
2023-04-09T03:44:18.237Z,8.80
2023-04-09T03:46:44.688Z,9.00
2023-04-09T03:49:11.136Z,8.80
2023-04-09T03:51:37.648Z,9.10
2023-04-09T03:54:04.112Z,9.60
2023-04-09T03:56:30.527Z,10.90
2023-04-09T03:58:56.920Z,10.40
2023-04-09T04:01:23.315Z,11.90
2023-04-09T04:03:49.988Z,14.40
2023-04-09T04:06:16.530Z,13.40
2023-04-09T04:08:44.692Z,12.40
2023-04-09T04:11:11.179Z,11.10
2023-04-09T04:13:37.594Z,9.40
2023-04-09T04:16:09.095Z,10.20
2023-04-09T04:18:36.615Z,9.90
2023-04-09T04:21:03.706Z,10.10
2023-04-09T04:23:30.211Z,10.60
2023-04-09T04:25:57.998Z,9.80
2023-04-09T04:28:24.531Z,9.60
2023-04-09T04:30:50.935Z,9.70
2023-04-09T04:33:17.384Z,11.10
2023-04-09T04:35:43.877Z,11.60
2023-04-09T04:38:10.469Z,10.90
2023-04-09T04:40:36.948Z,9.90
2023-04-09T04:43:03.387Z,9.80
2023-04-09T04:45:29.803Z,10.50
2023-04-09T04:47:56.309Z,9.80
2023-04-09T04:50:22.769Z,10.20
2023-04-09T04:52:49.140Z,10.10
2023-04-09T04:55:15.709Z,10.40
2023-04-09T04:57:42.115Z,10.70
2023-04-09T05:00:09.267Z,10.90
2023-04-09T05:02:35.902Z,11.00
2023-04-09T05:05:02.389Z,13.30
2023-04-09T05:07:28.826Z,13.20
2023-04-09T05:09:55.188Z,13.50
2023-04-09T05:12:21.567Z,14.20
2023-04-09T05:14:47.981Z,17.80
2023-04-09T05:17:14.329Z,22.30
2023-04-09T05:19:40.883Z,23.40
2023-04-09T05:22:07.529Z,17.00
2023-04-09T05:24:33.969Z,15.60
2023-04-09T05:27:01.187Z,14.90
2023-04-09T05:29:27.575Z,14.70
2023-04-09T05:31:53.953Z,14.50
2023-04-09T05:34:20.566Z,15.70
2023-04-09T05:36:46.965Z,15.40
2023-04-09T05:39:13.321Z,15.00
2023-04-09T05:41:40.700Z,15.80
2023-04-09T05:44:07.225Z,15.40
2023-04-09T05:46:33.713Z,14.50
2023-04-09T05:49:00.210Z,15.50
2023-04-09T05:51:26.595Z,17.10
2023-04-09T05:53:53.210Z,15.90
2023-04-09T05:56:22.594Z,15.80
2023-04-09T05:58:49.072Z,15.40
2023-04-09T06:01:15.789Z,15.30
2023-04-09T06:03:42.445Z,15.60
2023-04-09T06:06:08.945Z,16.00
2023-04-09T06:08:35.446Z,17.40
2023-04-09T06:11:02.008Z,16.30
2023-04-09T06:13:28.545Z,16.30
2023-04-09T06:15:55.402Z,18.30
2023-04-09T06:18:22.086Z,16.60
2023-04-09T06:20:48.468Z,16.70
2023-04-09T06:23:14.983Z,16.40
2023-04-09T06:25:41.684Z,16.70
2023-04-09T06:28:08.603Z,17.00
2023-04-09T06:30:36.882Z,15.80
2023-04-09T06:33:03.680Z,15.20
2023-04-09T06:35:30.146Z,18.40
2023-04-09T06:37:56.532Z,16.50
2023-04-09T06:40:23.562Z,17.20
2023-04-09T06:42:50.333Z,17.00
2023-04-09T06:45:16.828Z,16.70
2023-04-09T06:47:43.520Z,15.80
2023-04-09T06:50:10.679Z,16.30
2023-04-09T06:52:37.129Z,14.70
2023-04-09T06:55:03.769Z,16.10
2023-04-09T06:57:30.686Z,14.50
2023-04-09T06:59:57.283Z,14.90
2023-04-09T07:02:23.848Z,16.00
2023-04-09T07:04:50.506Z,15.40
2023-04-09T07:07:17.213Z,16.30
2023-04-09T07:09:44.674Z,17.50
2023-04-09T07:12:11.118Z,16.10
2023-04-09T07:14:37.543Z,15.90
2023-04-09T07:17:03.935Z,16.00
2023-04-09T07:19:30.949Z,15.60
2023-04-09T07:21:57.539Z,15.80
2023-04-09T07:24:23.964Z,14.90
2023-04-09T07:26:52.053Z,14.60
2023-04-09T07:29:20.737Z,14.30
2023-04-09T07:31:47.764Z,15.40
2023-04-09T07:34:14.262Z,14.70
2023-04-09T07:36:41.229Z,14.70
2023-04-09T07:39:07.649Z,14.20
2023-04-09T07:41:34.209Z,14.90
2023-04-09T07:44:03.257Z,14.00
2023-04-09T07:46:29.894Z,13.90
2023-04-09T07:48:56.626Z,13.00
2023-04-09T07:51:23.001Z,13.60
2023-04-09T07:53:49.418Z,12.70
2023-04-09T07:56:15.902Z,12.50
2023-04-09T07:58:43.038Z,13.50
2023-04-09T08:01:09.472Z,14.10
2023-04-09T08:03:36.724Z,12.10
2023-04-09T08:06:03.809Z,13.80
2023-04-09T08:08:30.941Z,14.00
2023-04-09T08:10:57.404Z,13.50
2023-04-09T08:13:25.329Z,13.50
2023-04-09T08:15:51.763Z,13.90
2023-04-09T08:18:18.186Z,14.30
2023-04-09T08:20:47.282Z,12.90
2023-04-09T08:23:14.022Z,13.40
2023-04-09T08:25:40.979Z,12.10
2023-04-09T08:28:08.313Z,11.80
2023-04-09T08:30:34.799Z,11.50
2023-04-09T08:33:02.538Z,10.80
2023-04-09T08:35:32.112Z,11.00
2023-04-09T08:37:59.740Z,9.10
2023-04-09T08:40:26.211Z,10.50
2023-04-09T08:42:56.787Z,10.50
2023-04-09T08:45:24.108Z,9.00
2023-04-09T08:47:52.167Z,7.60
2023-04-09T08:50:19.572Z,7.50
2023-04-09T08:52:49.098Z,7.90
2023-04-09T08:55:15.603Z,7.40
2023-04-09T08:57:43.907Z,7.20
2023-04-09T09:00:11.349Z,6.50
2023-04-09T09:02:39.446Z,7.90
2023-04-09T09:05:06.749Z,8.20
2023-04-09T09:07:34.212Z,6.80
2023-04-09T09:10:04.749Z,6.70
2023-04-09T09:12:40.465Z,6.10
2023-04-09T09:15:27.708Z,5.60
2023-04-09T09:18:00.049Z,5.50
2023-04-09T09:20:27.531Z,6.30
2023-04-09T09:22:56.875Z,6.00
2023-04-09T09:25:25.589Z,6.80
2023-04-09T09:27:53.533Z,6.70
2023-04-09T09:30:26.844Z,6.80
2023-04-09T09:33:13.669Z,6.60
2023-04-09T09:35:51.942Z,5.80
2023-04-09T09:38:18.821Z,6.40
2023-04-09T09:40:45.710Z,5.50
2023-04-09T09:43:14.624Z,6.40
2023-04-09T09:45:43.733Z,6.00
2023-04-09T09:48:12.829Z,5.70
2023-04-09T09:50:43.327Z,5.40
2023-04-09T09:53:11.784Z,5.30
2023-04-09T09:55:41.485Z,5.90
2023-04-09T09:58:18.562Z,6.20
2023-04-09T10:00:48.400Z,6.10
2023-04-09T10:03:22.219Z,7.30
2023-04-09T10:05:49.859Z,7.20
2023-04-09T10:08:17.507Z,6.50
2023-04-09T10:10:45.442Z,7.20
2023-04-09T10:13:21.841Z,6.40
2023-04-09T10:15:48.941Z,7.20
2023-04-09T10:18:15.745Z,6.50
2023-04-09T10:20:56.121Z,6.80
2023-04-09T10:23:35.592Z,6.80
2023-04-09T10:26:02.915Z,6.40
2023-04-09T10:28:30.103Z,6.20
2023-04-09T10:30:59.017Z,6.50
2023-04-09T10:33:28.884Z,6.80
2023-04-09T10:36:01.515Z,6.70
2023-04-09T10:38:37.435Z,6.00
2023-04-09T10:41:27.877Z,6.50
2023-04-09T10:43:54.325Z,6.30
2023-04-09T10:46:34.885Z,5.90
2023-04-09T10:49:20.864Z,6.40
2023-04-09T10:52:05.016Z,6.00
2023-04-09T10:54:34.497Z,6.50
2023-04-09T10:57:20.057Z,6.50
2023-04-09T10:59:51.720Z,6.60
2023-04-09T11:02:39.463Z,6.90
2023-04-09T11:05:27.155Z,5.60
2023-04-09T11:08:14.295Z,6.50
2023-04-09T11:10:49.125Z,6.50
2023-04-09T11:13:20.000Z,6.50
2023-04-09T11:15:46.656Z,6.90
2023-04-09T11:18:26.985Z,6.00
2023-04-09T11:21:01.002Z,6.40
2023-04-09T11:23:28.557Z,6.70
2023-04-09T11:25:56.404Z,7.00
2023-04-09T11:28:24.293Z,6.40
2023-04-09T11:30:51.875Z,5.90
2023-04-09T11:33:20.503Z,5.90
2023-04-09T11:35:47.724Z,6.20
2023-04-09T11:38:14.319Z,5.70
2023-04-09T11:40:49.564Z,5.50
2023-04-09T11:43:17.628Z,5.90
2023-04-09T11:45:44.954Z,5.30
2023-04-09T11:48:12.176Z,5.80
2023-04-09T11:50:38.917Z,7.10
2023-04-09T11:53:22.519Z,8.80
2023-04-09T11:55:53.298Z,7.80
2023-04-09T11:58:25.670Z,7.60
2023-04-09T12:00:58.493Z,7.10
2023-04-09T12:03:31.112Z,7.30
2023-04-09T12:06:01.839Z,7.20
2023-04-09T12:08:28.291Z,6.80
2023-04-09T12:10:54.735Z,7.20
2023-04-09T12:13:21.954Z,7.50
2023-04-09T12:15:49.959Z,7.10
2023-04-09T12:18:16.759Z,7.70
2023-04-09T12:20:46.627Z,7.80
2023-04-09T12:23:14.332Z,7.70
2023-04-09T12:25:43.949Z,8.70
2023-04-09T12:28:15.500Z,8.10
2023-04-09T12:30:43.193Z,8.30
2023-04-09T12:33:11.129Z,7.40
2023-04-09T12:35:38.483Z,6.00
2023-04-09T12:38:05.695Z,7.40
2023-04-09T12:40:32.249Z,8.20
2023-04-09T12:42:58.864Z,9.10
2023-04-09T12:45:25.365Z,9.50
2023-04-09T12:47:51.821Z,9.10
2023-04-09T12:50:18.330Z,9.30
2023-04-09T12:52:45.841Z,10.40
2023-04-09T12:55:13.672Z,9.20
2023-04-09T12:57:44.736Z,8.90
2023-04-09T13:00:12.650Z,7.80
2023-04-09T13:02:39.409Z,7.80
2023-04-09T13:05:06.558Z,7.60
2023-04-09T13:07:33.101Z,7.70
2023-04-09T13:09:59.575Z,7.60
2023-04-09T13:12:26.023Z,7.70
2023-04-09T13:14:54.855Z,8.60
2023-04-09T13:17:22.113Z,7.80
2023-04-09T13:19:49.399Z,8.00
2023-04-09T13:22:16.072Z,8.80
2023-04-09T13:24:43.195Z,8.00
2023-04-09T13:27:11.333Z,7.40
2023-04-09T13:29:38.161Z,7.60
2023-04-09T13:32:07.354Z,7.20
2023-04-09T13:34:35.391Z,7.00
2023-04-09T13:37:03.345Z,7.40
2023-04-09T13:39:29.839Z,7.40
2023-04-09T13:41:56.691Z,7.90
2023-04-09T13:44:25.162Z,8.10
2023-04-09T13:46:51.662Z,7.90
2023-04-09T13:49:18.269Z,6.60
2023-04-09T13:51:45.126Z,7.30
2023-04-09T13:54:11.594Z,6.40
2023-04-09T13:56:39.486Z,7.00
2023-04-09T13:59:06.332Z,6.60
2023-04-09T14:01:34.201Z,7.10
2023-04-09T14:04:00.865Z,7.20
2023-04-09T14:06:27.612Z,7.00
2023-04-09T14:08:55.879Z,6.80
2023-04-09T14:11:22.656Z,7.70
2023-04-09T14:13:49.049Z,7.10
2023-04-09T14:16:15.706Z,6.80
2023-04-09T14:18:42.250Z,6.60
2023-04-09T14:21:10.225Z,7.10
2023-04-09T14:23:37.471Z,7.70
2023-04-09T14:26:07.367Z,7.10
2023-04-09T14:28:33.795Z,9.10
2023-04-09T14:31:00.814Z,8.50
2023-04-09T14:33:27.916Z,8.80
2023-04-09T14:35:54.515Z,8.90
2023-04-09T14:38:20.892Z,8.70
2023-04-09T14:40:47.465Z,9.20
2023-04-09T14:43:13.874Z,9.80
2023-04-09T14:45:40.535Z,16.90
2023-04-09T14:48:07.217Z,17.10
2023-04-09T14:50:34.011Z,22.80
2023-04-09T14:53:01.084Z,13.90
2023-04-09T14:55:28.167Z,12.10
2023-04-09T14:57:54.691Z,22.90
2023-04-09T15:00:21.656Z,21.80
2023-04-09T15:02:48.995Z,23.20
2023-04-09T15:05:16.053Z,19.80
2023-04-09T15:07:43.767Z,16.00
2023-04-09T15:10:10.957Z,17.00
2023-04-09T15:12:37.466Z,17.80
2023-04-09T15:15:09.062Z,23.70
2023-04-09T15:17:36.117Z,21.90
2023-04-09T15:20:04.047Z,20.50
2023-04-09T15:22:30.624Z,19.30
2023-04-09T15:24:57.015Z,21.80
2023-04-09T15:27:23.496Z,32.40
2023-04-09T15:29:50.321Z,27.90
2023-04-09T15:32:16.750Z,17.90
2023-04-09T15:34:46.162Z,18.50
2023-04-09T15:37:12.784Z,17.30
2023-04-09T15:39:39.245Z,18.40
2023-04-09T15:42:07.958Z,17.60
2023-04-09T15:44:36.343Z,14.40
2023-04-09T15:47:02.782Z,15.30
2023-04-09T15:49:29.215Z,12.70
2023-04-09T15:51:55.660Z,21.40
2023-04-09T15:54:22.080Z,18.30
2023-04-09T15:56:48.437Z,19.10
2023-04-09T15:59:16.424Z,17.90
2023-04-09T16:01:42.976Z,15.10
2023-04-09T16:04:09.440Z,15.90
2023-04-09T16:06:39.278Z,18.30
2023-04-09T16:09:05.739Z,16.40
2023-04-09T16:11:32.244Z,17.50
2023-04-09T16:13:58.984Z,16.90
2023-04-09T16:16:25.476Z,17.80
2023-04-09T16:18:52.777Z,18.50
2023-04-09T16:21:19.392Z,17.40
2023-04-09T16:23:45.882Z,16.00
2023-04-09T16:26:12.399Z,14.90
2023-04-09T16:28:38.806Z,17.80
2023-04-09T16:31:05.417Z,17.40
2023-04-09T16:33:31.984Z,19.80
2023-04-09T16:35:58.501Z,16.50
2023-04-09T16:38:27.481Z,15.90
2023-04-09T16:40:54.151Z,16.80
2023-04-09T16:43:20.512Z,19.70
2023-04-09T16:45:47.085Z,18.30
2023-04-09T16:48:13.700Z,20.60
2023-04-09T16:50:40.402Z,17.80
2023-04-09T16:53:07.909Z,19.70
2023-04-09T16:55:35.139Z,20.70
2023-04-09T16:58:01.763Z,23.00
2023-04-09T17:00:28.236Z,20.80
2023-04-09T17:02:56.459Z,26.30
2023-04-09T17:05:23.407Z,35.80
2023-04-09T17:07:49.776Z,35.60
2023-04-09T17:10:16.400Z,31.50
2023-04-09T17:12:42.867Z,30.20
2023-04-09T17:15:10.506Z,22.30
2023-04-09T17:17:38.012Z,23.50
2023-04-09T17:20:05.696Z,28.60
2023-04-09T17:22:32.224Z,34.60
2023-04-09T17:24:58.652Z,34.00
2023-04-09T17:27:25.282Z,39.30
2023-04-09T17:29:51.719Z,28.60
2023-04-09T17:32:18.751Z,30.80
2023-04-09T17:34:51.282Z,30.60
2023-04-09T17:37:17.670Z,33.30
2023-04-09T17:39:44.210Z,28.00
2023-04-09T17:42:12.074Z,28.80
2023-04-09T17:44:38.720Z,45.30
2023-04-09T17:47:07.170Z,48.70
2023-04-09T17:49:33.629Z,43.50
2023-04-09T17:52:00.331Z,62.40
2023-04-09T17:54:26.807Z,35.00
2023-04-09T17:56:53.219Z,33.30
2023-04-09T17:59:20.440Z,29.90
2023-04-09T18:01:46.918Z,24.10
2023-04-09T18:04:13.732Z,23.90
2023-04-09T18:06:40.642Z,31.10
2023-04-09T18:09:07.617Z,35.10
2023-04-09T18:11:34.059Z,24.40
2023-04-09T18:14:00.481Z,22.70
2023-04-09T18:16:28.317Z,21.80
2023-04-09T18:18:55.384Z,22.50
2023-04-09T18:21:22.547Z,22.70
2023-04-09T18:23:48.979Z,22.20
2023-04-09T18:26:15.961Z,22.70
2023-04-09T18:28:42.490Z,23.80
2023-04-09T18:31:11.772Z,22.30
2023-04-09T18:33:38.223Z,22.30
2023-04-09T18:36:04.955Z,23.80
2023-04-09T18:38:31.650Z,26.50
2023-04-09T18:40:58.135Z,33.40
2023-04-09T18:43:25.111Z,33.50
2023-04-09T18:45:52.505Z,33.60
2023-04-09T18:48:19.263Z,34.60
2023-04-09T18:50:46.096Z,32.50
2023-04-09T18:53:12.613Z,27.70
2023-04-09T18:55:39.020Z,26.60
2023-04-09T18:58:08.766Z,28.80
2023-04-09T19:00:35.781Z,28.70
2023-04-09T19:03:02.473Z,28.60
2023-04-09T19:05:33.196Z,25.60
2023-04-09T19:08:05.230Z,25.90
2023-04-09T19:10:32.802Z,24.70
2023-04-09T19:12:59.272Z,24.70
2023-04-09T19:15:26.711Z,23.00
2023-04-09T19:17:53.711Z,23.60
2023-04-09T19:20:20.383Z,23.10
2023-04-09T19:22:51.035Z,24.30
2023-04-09T19:25:18.377Z,24.20
2023-04-09T19:27:45.806Z,26.20
2023-04-09T19:30:13.126Z,24.30
2023-04-09T19:32:41.660Z,23.70
2023-04-09T19:35:08.558Z,24.20
2023-04-09T19:37:35.098Z,23.90
2023-04-09T19:40:04.569Z,25.80
2023-04-09T19:42:32.860Z,24.40
2023-04-09T19:45:00.222Z,24.10
2023-04-09T19:47:27.928Z,24.60
2023-04-09T19:49:54.669Z,23.90
2023-04-09T19:52:21.487Z,24.20
2023-04-09T19:54:48.074Z,24.10
2023-04-09T19:57:15.184Z,22.70
2023-04-09T19:59:41.652Z,22.20
2023-04-09T20:02:08.210Z,22.80
2023-04-09T20:04:34.658Z,23.80
2023-04-09T20:07:01.318Z,22.80
2023-04-09T20:09:29.029Z,24.30
2023-04-09T20:11:55.588Z,23.40
2023-04-09T20:14:22.083Z,23.20
2023-04-09T20:16:48.628Z,23.90
2023-04-09T20:19:15.126Z,22.70
2023-04-09T20:21:43.540Z,23.30
2023-04-09T20:24:09.992Z,24.00
2023-04-09T20:26:36.541Z,30.70
2023-04-09T20:29:02.970Z,31.10
2023-04-09T20:31:30.858Z,23.90
2023-04-09T20:33:57.370Z,24.80
2023-04-09T20:36:23.893Z,23.60
2023-04-09T20:38:50.422Z,21.50
2023-04-09T20:41:16.831Z,21.40
2023-04-09T20:43:43.313Z,21.40
2023-04-09T20:46:09.902Z,20.50
2023-04-09T20:48:36.446Z,21.90
2023-04-09T20:51:09.774Z,22.20
2023-04-09T20:53:37.541Z,21.60
2023-04-09T20:56:05.976Z,19.80
2023-04-09T20:58:33.433Z,19.00
2023-04-09T21:01:09.558Z,20.30
2023-04-09T21:03:39.032Z,19.10
2023-04-09T21:06:06.586Z,19.70
2023-04-09T21:08:32.989Z,20.00
2023-04-09T21:10:59.680Z,20.60
2023-04-09T21:13:27.185Z,19.30
2023-04-09T21:15:53.673Z,18.70
2023-04-09T21:18:20.338Z,21.00
2023-04-09T21:20:47.226Z,20.70
2023-04-09T21:23:13.722Z,18.90
2023-04-09T21:25:40.993Z,20.00
2023-04-09T21:28:07.647Z,18.80
2023-04-09T21:30:35.305Z,18.80
2023-04-09T21:33:03.362Z,19.90
2023-04-09T21:35:29.914Z,19.40
2023-04-09T21:37:56.775Z,19.10
2023-04-09T21:40:24.273Z,19.70
2023-04-09T21:42:51.423Z,19.50
2023-04-09T21:45:17.946Z,19.80
2023-04-09T21:47:44.470Z,18.80
2023-04-09T21:50:11.698Z,19.20
2023-04-09T21:52:38.052Z,19.10
2023-04-09T21:55:04.836Z,18.70
2023-04-09T21:57:31.338Z,19.00
2023-04-09T21:59:58.828Z,20.10
2023-04-09T22:02:25.593Z,19.40
2023-04-09T22:04:52.122Z,20.20
2023-04-09T22:07:18.640Z,19.70
2023-04-09T22:09:45.066Z,18.00
2023-04-09T22:12:11.514Z,20.40
2023-04-09T22:14:39.172Z,19.40
2023-04-09T22:17:08.573Z,18.90
2023-04-09T22:19:35.104Z,18.60
2023-04-09T22:22:01.549Z,19.60
2023-04-09T22:24:30.038Z,18.70
2023-04-09T22:26:58.915Z,19.20
2023-04-09T22:29:26.831Z,19.40
2023-04-09T22:31:54.284Z,18.50
2023-04-09T22:34:22.096Z,18.50
2023-04-09T22:36:48.812Z,27.90
2023-04-09T22:39:15.821Z,25.80
2023-04-09T22:41:42.222Z,23.30
2023-04-09T22:44:09.556Z,20.50
2023-04-09T22:46:36.712Z,19.80
2023-04-09T22:49:05.596Z,18.10
2023-04-09T22:51:34.498Z,18.10
2023-04-09T22:54:01.829Z,17.40
2023-04-09T22:56:28.715Z,18.20
2023-04-09T22:58:55.557Z,18.40
2023-04-09T23:01:23.133Z,17.30
2023-04-09T23:03:50.345Z,17.50
2023-04-09T23:06:19.478Z,18.20
2023-04-09T23:08:46.500Z,19.40
2023-04-09T23:11:13.059Z,19.80
2023-04-09T23:13:39.791Z,18.60
2023-04-09T23:16:07.810Z,18.10
2023-04-09T23:18:35.768Z,17.10
2023-04-09T23:21:06.957Z,17.60
2023-04-09T23:23:34.750Z,17.30
2023-04-09T23:26:01.338Z,17.90
2023-04-09T23:28:28.513Z,19.00
2023-04-09T23:30:55.783Z,17.20
2023-04-09T23:33:22.852Z,16.80
2023-04-09T23:35:49.428Z,17.20
2023-04-09T23:38:15.839Z,16.40
2023-04-09T23:40:43.015Z,16.60
2023-04-09T23:43:09.455Z,15.50
2023-04-09T23:45:35.866Z,15.00
2023-04-09T23:48:03.777Z,15.20
2023-04-09T23:50:30.364Z,15.80
2023-04-09T23:52:59.879Z,15.00
2023-04-09T23:55:27.185Z,14.90
2023-04-09T23:57:53.729Z,14.00
